createdAt,value
2018-05-21T00:00:58.400Z,12.43
2018-05-21T00:02:06.458Z,12.39
2018-05-21T00:03:14.541Z,12.43
2018-05-21T00:04:22.597Z,12.47
2018-05-21T00:05:30.670Z,12.43
2018-05-21T00:06:38.717Z,12.39
2018-05-21T00:07:46.790Z,12.45
2018-05-21T00:08:54.856Z,12.44
2018-05-21T00:10:02.926Z,12.51
2018-05-21T00:11:10.989Z,12.61
2018-05-21T00:12:19.060Z,12.51
2018-05-21T00:13:27.094Z,12.40
2018-05-21T00:14:35.182Z,12.57
2018-05-21T00:15:43.250Z,12.57
2018-05-21T00:16:51.338Z,12.55
2018-05-21T00:17:59.363Z,12.45
2018-05-21T00:19:07.426Z,12.40
2018-05-21T00:20:15.512Z,12.40
2018-05-21T00:21:23.571Z,12.47
2018-05-21T00:22:31.624Z,12.33
2018-05-21T00:23:39.667Z,12.36
2018-05-21T00:24:47.757Z,12.39
2018-05-21T00:25:55.815Z,12.36
2018-05-21T00:27:03.883Z,12.39
2018-05-21T00:28:11.944Z,12.29
2018-05-21T00:29:19.988Z,12.35
2018-05-21T00:30:28.088Z,12.39
2018-05-21T00:31:36.136Z,12.37
2018-05-21T00:32:44.198Z,12.30
2018-05-21T00:33:52.266Z,12.30
2018-05-21T00:35:00.345Z,12.29
2018-05-21T00:36:08.397Z,12.35
2018-05-21T00:37:16.459Z,12.29
2018-05-21T00:38:24.520Z,12.28
2018-05-21T00:39:32.580Z,12.17
2018-05-21T00:40:40.654Z,12.14
2018-05-21T00:41:48.758Z,12.12
2018-05-21T00:42:56.790Z,12.14
2018-05-21T00:44:04.841Z,12.14
2018-05-21T00:45:12.909Z,12.11
2018-05-21T00:46:20.976Z,12.02
2018-05-21T00:47:29.038Z,12.03
2018-05-21T00:48:37.109Z,12.11
2018-05-21T00:49:45.170Z,12.14
2018-05-21T00:50:53.249Z,12.08
2018-05-21T00:52:01.297Z,12.08
2018-05-21T00:53:09.363Z,12.15
2018-05-21T00:54:17.407Z,12.11
2018-05-21T00:55:25.484Z,12.10
2018-05-21T00:56:33.544Z,12.08
2018-05-21T00:57:41.608Z,12.15
2018-05-21T00:58:49.652Z,12.08
2018-05-21T00:59:57.735Z,12.03
2018-05-21T01:01:05.819Z,12.11
2018-05-21T01:02:13.875Z,11.91
2018-05-21T01:03:21.947Z,11.97
2018-05-21T01:04:29.973Z,11.93
2018-05-21T01:05:38.066Z,11.97
2018-05-21T01:06:46.126Z,11.96
2018-05-21T01:07:54.200Z,11.91
2018-05-21T01:09:02.246Z,12.05
2018-05-21T01:10:10.304Z,12.02
2018-05-21T01:11:18.393Z,12.08
2018-05-21T01:12:26.437Z,12.02
2018-05-21T01:13:34.513Z,12.15
2018-05-21T01:14:42.571Z,12.10
2018-05-21T01:15:50.640Z,12.10
2018-05-21T01:16:58.713Z,12.17
2018-05-21T01:18:06.771Z,12.05
2018-05-21T01:19:14.839Z,12.07
2018-05-21T01:20:22.894Z,11.86
2018-05-21T01:21:30.966Z,11.86
2018-05-21T01:22:39.017Z,11.91
2018-05-21T01:23:47.088Z,11.88
2018-05-21T01:24:55.149Z,11.95
2018-05-21T01:26:03.204Z,11.89
2018-05-21T01:27:11.275Z,11.83
2018-05-21T01:28:19.323Z,11.89
2018-05-21T01:29:27.396Z,11.88
2018-05-21T01:30:35.471Z,11.85
2018-05-21T01:31:43.526Z,11.80
2018-05-21T01:32:51.610Z,11.77
2018-05-21T01:33:59.633Z,11.81
2018-05-21T01:35:07.722Z,11.86
2018-05-21T01:36:15.792Z,11.85
2018-05-21T01:37:23.853Z,11.85
2018-05-21T01:38:31.912Z,11.91
2018-05-21T01:39:39.944Z,11.88
2018-05-21T01:40:48.052Z,11.93
2018-05-21T01:41:56.110Z,11.91
2018-05-21T01:43:04.170Z,11.93
2018-05-21T01:44:12.237Z,12.03
2018-05-21T01:45:20.290Z,11.99
2018-05-21T01:46:28.369Z,11.89
2018-05-21T01:47:36.428Z,12.08
2018-05-21T01:48:44.496Z,11.95
2018-05-21T01:49:52.556Z,11.95
2018-05-21T01:51:00.627Z,11.96
2018-05-21T01:52:08.683Z,11.88
2018-05-21T01:53:16.752Z,11.95
2018-05-21T01:54:24.824Z,11.86
2018-05-21T01:55:32.871Z,11.85
2018-05-21T01:56:40.939Z,11.83
2018-05-21T01:57:49.007Z,11.80
2018-05-21T01:58:57.068Z,11.77
2018-05-21T02:00:05.155Z,11.71
2018-05-21T02:01:13.205Z,11.68
2018-05-21T02:02:21.304Z,11.70
2018-05-21T02:03:29.319Z,11.62
2018-05-21T02:04:37.399Z,11.62
2018-05-21T02:05:45.467Z,11.63
2018-05-21T02:06:53.525Z,11.44
2018-05-21T02:08:01.587Z,11.59
2018-05-21T02:09:09.629Z,11.45
2018-05-21T02:10:17.716Z,11.49
2018-05-21T02:11:25.783Z,11.38
2018-05-21T02:12:33.828Z,11.48
2018-05-21T02:13:41.913Z,11.35
2018-05-21T02:14:49.937Z,11.38
2018-05-21T02:15:58.030Z,11.44
2018-05-21T02:17:06.098Z,11.45
2018-05-21T02:18:14.165Z,11.41
2018-05-21T02:19:22.240Z,11.45
2018-05-21T02:20:30.280Z,11.52
2018-05-21T02:21:38.347Z,11.44
2018-05-21T02:22:46.410Z,11.51
2018-05-21T02:23:54.479Z,11.48
2018-05-21T02:25:02.541Z,11.44
2018-05-21T02:26:10.646Z,11.59
2018-05-21T02:27:18.664Z,11.49
2018-05-21T02:28:26.735Z,11.49
2018-05-21T02:29:34.807Z,11.43
2018-05-21T02:30:42.857Z,11.43
2018-05-21T02:31:50.918Z,11.44
2018-05-21T02:32:58.986Z,11.43
2018-05-21T02:34:07.051Z,11.45
2018-05-21T02:35:15.118Z,11.45
2018-05-21T02:36:23.180Z,11.48
2018-05-21T02:37:31.252Z,11.44
2018-05-21T02:38:39.282Z,11.51
2018-05-21T02:39:47.371Z,11.43
2018-05-21T02:40:55.438Z,11.44
2018-05-21T02:42:03.493Z,11.40
2018-05-21T02:43:11.561Z,11.41
2018-05-21T02:44:19.590Z,11.41
2018-05-21T02:45:27.687Z,11.48
2018-05-21T02:46:35.751Z,11.37
2018-05-21T02:47:43.809Z,11.45
2018-05-21T02:48:51.876Z,11.44
2018-05-21T02:49:59.907Z,11.44
2018-05-21T02:51:08.004Z,11.41
2018-05-21T02:52:16.063Z,11.41
2018-05-21T02:53:24.127Z,11.40
2018-05-21T02:54:32.201Z,11.43
2018-05-21T02:55:40.246Z,11.52
2018-05-21T02:56:48.325Z,11.51
2018-05-21T02:57:56.383Z,11.44
2018-05-21T02:59:04.451Z,11.41
2018-05-21T03:00:12.512Z,11.35
2018-05-21T03:01:20.562Z,11.38
2018-05-21T03:02:28.635Z,11.37
2018-05-21T03:03:36.709Z,11.31
2018-05-21T03:04:44.777Z,11.31
2018-05-21T03:05:52.825Z,11.33
2018-05-21T03:07:00.882Z,11.25
2018-05-21T03:08:08.962Z,11.26
2018-05-21T03:09:17.019Z,11.19
2018-05-21T03:10:25.082Z,11.31
2018-05-21T03:11:33.150Z,11.26
2018-05-21T03:12:41.213Z,11.33
2018-05-21T03:13:49.263Z,11.40
2018-05-21T03:14:57.346Z,11.35
2018-05-21T03:16:05.446Z,11.27
2018-05-21T03:17:13.455Z,11.34
2018-05-21T03:18:21.535Z,11.34
2018-05-21T03:19:29.564Z,11.33
2018-05-21T03:20:37.656Z,11.38
2018-05-21T03:21:45.725Z,11.37
2018-05-21T03:22:53.785Z,11.31
2018-05-21T03:24:01.854Z,11.31
2018-05-21T03:25:09.886Z,11.33
2018-05-21T03:26:17.982Z,11.33
2018-05-21T03:27:26.033Z,11.33
2018-05-21T03:28:34.107Z,11.33
2018-05-21T03:29:42.162Z,11.37
2018-05-21T03:30:50.229Z,11.27
2018-05-21T03:31:58.290Z,11.31
2018-05-21T03:33:06.362Z,11.22
2018-05-21T03:34:14.420Z,11.25
2018-05-21T03:35:22.484Z,11.34
2018-05-21T03:36:30.600Z,11.26
2018-05-21T03:37:38.625Z,11.31
2018-05-21T03:38:46.676Z,11.31
2018-05-21T03:39:54.744Z,11.38
2018-05-21T03:41:02.810Z,11.37
2018-05-21T03:42:10.868Z,11.35
2018-05-21T03:43:18.943Z,11.35
2018-05-21T03:44:27.004Z,11.35
2018-05-21T03:45:35.064Z,11.41
2018-05-21T03:46:43.145Z,11.40
2018-05-21T03:47:51.191Z,11.40
2018-05-21T03:48:59.260Z,11.44
2018-05-21T03:50:07.319Z,11.48
2018-05-21T03:51:15.397Z,11.48
2018-05-21T03:52:23.454Z,11.43
2018-05-21T03:53:31.502Z,11.38
2018-05-21T03:54:39.553Z,11.43
2018-05-21T03:55:47.648Z,11.43
2018-05-21T03:56:55.714Z,11.44
2018-05-21T03:58:03.766Z,11.44
2018-05-21T03:59:11.833Z,11.45
2018-05-21T04:00:19.866Z,11.45
2018-05-21T04:01:27.956Z,11.52
2018-05-21T04:02:36.047Z,11.43
2018-05-21T04:03:44.078Z,11.48
2018-05-21T04:04:52.149Z,11.45
2018-05-21T04:06:00.200Z,11.43
2018-05-21T04:07:08.274Z,11.53
2018-05-21T04:08:16.352Z,11.49
2018-05-21T04:09:24.398Z,11.55
2018-05-21T04:10:32.467Z,11.52
2018-05-21T04:11:40.544Z,11.43
2018-05-21T04:12:48.615Z,11.45
2018-05-21T04:13:56.681Z,11.49
2018-05-21T04:15:04.741Z,11.55
2018-05-21T04:16:12.804Z,11.58
2018-05-21T04:17:20.869Z,11.59
2018-05-21T04:18:28.924Z,11.55
2018-05-21T04:19:36.987Z,11.55
2018-05-21T04:20:45.057Z,11.58
2018-05-21T04:21:53.118Z,11.56
2018-05-21T04:23:01.190Z,11.67
2018-05-21T04:24:09.243Z,11.65
2018-05-21T04:25:17.322Z,11.70
2018-05-21T04:26:25.369Z,11.63
2018-05-21T04:27:33.449Z,11.77
2018-05-21T04:28:41.509Z,11.74
2018-05-21T04:29:49.556Z,11.77
2018-05-21T04:30:57.634Z,11.83
2018-05-21T04:32:05.692Z,11.80
2018-05-21T04:33:13.763Z,11.95
2018-05-21T04:34:21.839Z,11.88
2018-05-21T04:35:29.867Z,11.93
2018-05-21T04:36:37.963Z,12.07
2018-05-21T04:37:46.018Z,12.14
2018-05-21T04:38:54.113Z,12.10
2018-05-21T04:40:02.163Z,12.14
2018-05-21T04:41:10.200Z,12.15
2018-05-21T04:42:18.288Z,12.18
2018-05-21T04:43:26.351Z,12.25
2018-05-21T04:44:34.419Z,12.35
2018-05-21T04:45:42.505Z,12.29
2018-05-21T04:46:50.543Z,12.30
2018-05-21T04:47:58.603Z,12.35
2018-05-21T04:49:06.674Z,12.32
2018-05-21T04:50:14.742Z,12.29
2018-05-21T04:51:22.816Z,12.29
2018-05-21T04:52:30.864Z,12.29
2018-05-21T04:53:39.054Z,12.35
2018-05-21T04:54:47.131Z,12.29
2018-05-21T04:55:55.599Z,12.36
2018-05-21T04:57:03.118Z,12.37
2018-05-21T04:58:11.643Z,12.62
2018-05-21T04:59:19.251Z,12.80
2018-05-21T05:00:27.321Z,12.81
2018-05-21T05:01:36.052Z,12.91
2018-05-21T05:02:43.714Z,12.94
2018-05-21T05:03:51.797Z,12.84
2018-05-21T05:05:00.125Z,12.86
2018-05-21T05:06:07.654Z,12.73
2018-05-21T05:07:15.711Z,12.72
2018-05-21T05:08:24.369Z,12.84
2018-05-21T05:09:32.017Z,12.91
2018-05-21T05:10:40.126Z,12.94
2018-05-21T05:11:48.291Z,12.78
2018-05-21T05:12:56.032Z,12.78
2018-05-21T05:14:04.210Z,12.76
2018-05-21T05:15:12.466Z,12.81
2018-05-21T05:16:20.549Z,12.69
2018-05-21T05:17:28.971Z,12.83
2018-05-21T05:18:37.036Z,12.69
2018-05-21T05:19:45.078Z,12.76
2018-05-21T05:20:53.011Z,12.80
2018-05-21T05:22:01.226Z,12.69
2018-05-21T05:23:09.263Z,12.68
2018-05-21T05:24:17.294Z,12.69
2018-05-21T05:25:25.309Z,12.69
2018-05-21T05:26:32.992Z,12.68
2018-05-21T05:27:40.891Z,12.86
2018-05-21T05:28:48.987Z,12.75
2018-05-21T05:29:57.027Z,12.75
2018-05-21T05:31:05.100Z,12.81
2018-05-21T05:32:13.193Z,12.78
2018-05-21T05:33:21.257Z,12.75
2018-05-21T05:34:29.473Z,12.70
2018-05-21T05:35:37.774Z,12.78
2018-05-21T05:36:45.391Z,12.83
2018-05-21T05:37:53.837Z,12.83
2018-05-21T05:39:01.577Z,12.83
2018-05-21T05:40:10.156Z,12.81
2018-05-21T05:41:18.276Z,12.81
2018-05-21T05:42:26.322Z,12.81
2018-05-21T05:43:33.822Z,12.90
2018-05-21T05:44:42.542Z,12.83
2018-05-21T05:45:50.183Z,12.86
2018-05-21T05:46:58.533Z,12.94
2018-05-21T05:48:06.180Z,12.87
2018-05-21T05:49:14.160Z,12.95
2018-05-21T05:50:22.706Z,13.01
2018-05-21T05:51:30.278Z,13.02
2018-05-21T05:52:38.916Z,13.08
2018-05-21T05:53:46.424Z,13.05
2018-05-21T05:54:54.489Z,13.06
2018-05-21T05:56:02.559Z,13.09
2018-05-21T05:57:10.615Z,13.11
2018-05-21T05:58:18.691Z,13.19
2018-05-21T05:59:27.035Z,13.13
2018-05-21T06:00:35.120Z,13.30
2018-05-21T06:01:42.896Z,13.23
2018-05-21T06:02:50.948Z,13.24
2018-05-21T06:03:59.013Z,13.27
2018-05-21T06:05:07.068Z,13.30
2018-05-21T06:06:15.143Z,13.42
2018-05-21T06:07:23.449Z,13.33
2018-05-21T06:08:31.284Z,13.31
2018-05-21T06:09:39.568Z,13.43
2018-05-21T06:10:47.421Z,13.49
2018-05-21T06:11:55.576Z,13.54
2018-05-21T06:13:03.540Z,13.61
2018-05-21T06:14:11.604Z,13.58
2018-05-21T06:15:19.653Z,13.65
2018-05-21T06:16:27.736Z,13.64
2018-05-21T06:17:35.813Z,13.70
2018-05-21T06:18:43.861Z,13.71
2018-05-21T06:19:51.937Z,13.70
2018-05-21T06:20:59.967Z,13.73
2018-05-21T06:22:08.063Z,13.78
2018-05-21T06:23:16.146Z,13.82
2018-05-21T06:24:24.182Z,13.78
2018-05-21T06:25:32.702Z,13.82
2018-05-21T06:26:40.320Z,13.83
2018-05-21T06:27:48.395Z,13.94
2018-05-21T06:28:56.907Z,14.03
2018-05-21T06:30:04.538Z,14.04
2018-05-21T06:31:12.595Z,14.03
2018-05-21T06:32:21.589Z,14.12
2018-05-21T06:33:28.718Z,14.16
2018-05-21T06:34:37.664Z,14.20
2018-05-21T06:35:44.865Z,14.28
2018-05-21T06:36:53.464Z,14.34
2018-05-21T06:38:01.185Z,14.36
2018-05-21T06:39:09.553Z,14.36
2018-05-21T06:40:17.162Z,14.40
2018-05-21T06:41:25.281Z,14.41
2018-05-21T06:42:33.255Z,14.45
2018-05-21T06:43:41.307Z,14.40
2018-05-21T06:44:49.881Z,14.45
2018-05-21T06:45:57.532Z,14.51
2018-05-21T06:47:06.109Z,14.48
2018-05-21T06:48:13.594Z,14.51
2018-05-21T06:49:21.657Z,14.53
2018-05-21T06:50:29.692Z,14.62
2018-05-21T06:51:37.786Z,14.66
2018-05-21T06:52:46.374Z,14.66
2018-05-21T06:53:54.325Z,14.85
2018-05-21T06:55:02.182Z,14.79
2018-05-21T06:56:10.022Z,14.85
2018-05-21T06:57:18.745Z,14.90
2018-05-21T06:58:26.668Z,14.93
2018-05-21T06:59:34.251Z,14.94
2018-05-21T07:00:42.317Z,14.97
2018-05-21T07:01:50.537Z,15.11
2018-05-21T07:02:58.447Z,15.00
2018-05-21T07:04:06.725Z,15.11
2018-05-21T07:05:14.612Z,15.14
2018-05-21T07:06:22.651Z,15.17
2018-05-21T07:07:30.723Z,15.18
2018-05-21T07:08:38.791Z,15.35
2018-05-21T07:09:46.874Z,15.37
2018-05-21T07:10:54.924Z,15.48
2018-05-21T07:12:02.978Z,15.65
2018-05-21T07:13:11.046Z,15.76
2018-05-21T07:14:19.114Z,15.91
2018-05-21T07:15:27.454Z,16.28
2018-05-21T07:16:35.821Z,16.47
2018-05-21T07:17:43.315Z,16.74
2018-05-21T07:18:51.539Z,17.13
2018-05-21T07:19:59.441Z,17.49
2018-05-21T07:21:07.698Z,18.00
2018-05-21T07:22:15.601Z,18.64
2018-05-21T07:23:24.184Z,19.12
2018-05-21T07:24:31.901Z,19.75
2018-05-21T07:25:40.045Z,20.18
2018-05-21T07:26:48.402Z,20.52
2018-05-21T07:27:55.937Z,20.89
2018-05-21T07:29:04.014Z,21.20
2018-05-21T07:30:12.075Z,21.37
2018-05-21T07:31:20.271Z,21.65
2018-05-21T07:32:28.348Z,21.78
2018-05-21T07:33:36.290Z,22.25
2018-05-21T07:34:44.363Z,22.68
2018-05-21T07:35:52.454Z,23.04
2018-05-21T07:37:00.503Z,23.36
2018-05-21T07:38:08.601Z,23.58
2018-05-21T07:39:16.758Z,23.84
2018-05-21T07:40:24.841Z,24.09
2018-05-21T07:41:32.808Z,24.32
2018-05-21T07:42:40.895Z,24.61
2018-05-21T07:43:49.296Z,25.18
2018-05-21T07:44:57.853Z,25.09
2018-05-21T07:46:05.125Z,24.94
2018-05-21T07:47:13.789Z,24.84
2018-05-21T07:48:21.620Z,24.84
2018-05-21T07:49:29.408Z,24.77
2018-05-21T07:50:37.959Z,24.86
2018-05-21T07:51:45.525Z,24.77
2018-05-21T07:52:53.609Z,23.95
2018-05-21T07:54:01.701Z,23.52
2018-05-21T07:55:09.755Z,23.52
2018-05-21T07:56:17.852Z,23.95
2018-05-21T07:57:25.982Z,24.51
2018-05-21T07:58:34.681Z,24.71
2018-05-21T07:59:43.606Z,24.84
2018-05-21T08:00:50.160Z,25.09
2018-05-21T08:01:58.265Z,25.15
2018-05-21T08:03:06.338Z,25.26
2018-05-21T08:04:14.418Z,25.49
2018-05-21T08:05:22.567Z,25.74
2018-05-21T08:06:30.584Z,25.86
2018-05-21T08:07:39.170Z,25.88
2018-05-21T08:08:47.165Z,26.08
2018-05-21T08:09:54.819Z,26.03
2018-05-21T08:11:02.906Z,25.73
2018-05-21T08:12:10.988Z,25.30
2018-05-21T08:13:19.061Z,24.94
2018-05-21T08:14:27.170Z,24.94
2018-05-21T08:15:35.229Z,24.85
2018-05-21T08:16:43.323Z,24.96
2018-05-21T08:17:51.403Z,25.39
2018-05-21T08:18:59.452Z,25.59
2018-05-21T08:20:07.583Z,25.86
2018-05-21T08:21:16.055Z,25.49
2018-05-21T08:22:23.713Z,25.61
2018-05-21T08:23:32.297Z,25.74
2018-05-21T08:24:39.858Z,25.78
2018-05-21T08:25:47.968Z,25.95
2018-05-21T08:26:56.623Z,26.15
2018-05-21T08:28:04.148Z,26.29
2018-05-21T08:29:12.802Z,26.39
2018-05-21T08:30:20.300Z,26.48
2018-05-21T08:31:28.407Z,26.56
2018-05-21T08:32:36.479Z,26.49
2018-05-21T08:33:44.573Z,26.36
2018-05-21T08:34:52.666Z,26.15
2018-05-21T08:36:00.736Z,26.11
2018-05-21T08:37:09.420Z,26.15
2018-05-21T08:38:17.412Z,26.16
2018-05-21T08:39:25.004Z,26.23
2018-05-21T08:40:33.210Z,26.18
2018-05-21T08:41:41.254Z,25.96
2018-05-21T08:42:49.340Z,25.88
2018-05-21T08:43:57.818Z,25.95
2018-05-21T08:45:05.460Z,25.86
2018-05-21T08:46:13.513Z,25.80
2018-05-21T08:47:21.593Z,25.91
2018-05-21T08:48:30.343Z,26.03
2018-05-21T08:49:37.759Z,26.08
2018-05-21T08:50:45.844Z,26.19
2018-05-21T08:51:53.925Z,26.19
2018-05-21T08:53:02.010Z,26.08
2018-05-21T08:54:10.100Z,26.33
2018-05-21T08:55:18.237Z,26.19
2018-05-21T08:56:26.307Z,26.31
2018-05-21T08:57:34.369Z,26.19
2018-05-21T08:58:42.456Z,25.85
2018-05-21T08:59:50.517Z,25.88
2018-05-21T09:00:58.610Z,25.95
2018-05-21T09:02:06.697Z,26.16
2018-05-21T09:03:14.765Z,26.18
2018-05-21T09:04:22.855Z,26.01
2018-05-21T09:05:31.005Z,25.81
2018-05-21T09:06:39.028Z,25.63
2018-05-21T09:07:47.121Z,25.78
2018-05-21T09:08:55.199Z,25.85
2018-05-21T09:10:03.306Z,25.86
2018-05-21T09:11:11.360Z,25.73
2018-05-21T09:12:19.432Z,25.29
2018-05-21T09:13:27.525Z,25.52
2018-05-21T09:14:35.620Z,24.96
2018-05-21T09:15:43.699Z,24.79
2018-05-21T09:16:51.783Z,24.36
2018-05-21T09:17:59.834Z,23.96
2018-05-21T09:19:07.940Z,23.45
2018-05-21T09:20:16.033Z,23.28
2018-05-21T09:21:24.113Z,23.10
2018-05-21T09:22:32.203Z,23.10
2018-05-21T09:23:40.283Z,22.88
2018-05-21T09:24:48.340Z,22.78
2018-05-21T09:25:56.496Z,22.61
2018-05-21T09:27:04.507Z,22.55
2018-05-21T09:28:12.582Z,22.37
2018-05-21T09:29:20.649Z,22.40
2018-05-21T09:30:28.729Z,22.28
2018-05-21T09:31:36.812Z,22.30
2018-05-21T09:32:44.884Z,22.28
2018-05-21T09:33:52.979Z,22.36
2018-05-21T09:35:01.061Z,22.28
2018-05-21T09:36:09.133Z,22.30
2018-05-21T09:37:17.205Z,22.41
2018-05-21T09:38:25.280Z,22.46
2018-05-21T09:39:33.347Z,22.40
2018-05-21T09:40:41.432Z,22.30
2018-05-21T09:41:49.480Z,22.34
2018-05-21T09:42:57.580Z,22.38
2018-05-21T09:44:05.664Z,22.26
2018-05-21T09:45:13.735Z,22.30
2018-05-21T09:46:21.808Z,22.26
2018-05-21T09:47:29.861Z,22.10
2018-05-21T09:48:37.997Z,22.01
2018-05-21T09:49:46.042Z,22.01
2018-05-21T09:50:54.121Z,22.08
2018-05-21T09:52:02.193Z,22.07
2018-05-21T09:53:10.263Z,22.01
2018-05-21T09:54:18.341Z,22.06
2018-05-21T09:55:26.417Z,22.18
2018-05-21T09:56:34.479Z,22.25
2018-05-21T09:57:42.545Z,22.31
2018-05-21T09:58:50.644Z,22.25
2018-05-21T09:59:58.699Z,22.22
2018-05-21T10:01:06.774Z,22.19
2018-05-21T10:02:14.862Z,22.22
2018-05-21T10:03:22.909Z,22.28
2018-05-21T10:04:30.994Z,22.07
2018-05-21T10:05:39.071Z,22.33
2018-05-21T10:06:47.144Z,22.21
2018-05-21T10:07:55.231Z,22.30
2018-05-21T10:09:03.290Z,22.36
2018-05-21T10:10:11.359Z,22.51
2018-05-21T10:11:19.429Z,22.68
2018-05-21T10:12:27.522Z,22.61
2018-05-21T10:13:35.597Z,22.67
2018-05-21T10:14:43.664Z,22.62
2018-05-21T10:15:51.740Z,22.68
2018-05-21T10:16:59.787Z,22.78
2018-05-21T10:18:07.887Z,22.77
2018-05-21T10:19:15.964Z,22.76
2018-05-21T10:20:24.033Z,22.83
2018-05-21T10:21:32.101Z,22.88
2018-05-21T10:22:40.157Z,22.83
2018-05-21T10:23:48.253Z,22.77
2018-05-21T10:24:56.325Z,22.67
2018-05-21T10:26:04.410Z,22.63
2018-05-21T10:27:12.467Z,22.63
2018-05-21T10:28:20.541Z,22.67
2018-05-21T10:29:28.621Z,22.62
2018-05-21T10:30:36.688Z,22.53
2018-05-21T10:31:44.766Z,22.36
2018-05-21T10:32:52.830Z,22.58
2018-05-21T10:34:00.902Z,22.62
2018-05-21T10:35:08.977Z,22.63
2018-05-21T10:36:17.059Z,22.78
2018-05-21T10:37:25.315Z,22.83
2018-05-21T10:38:33.194Z,22.70
2018-05-21T10:39:41.274Z,22.84
2018-05-21T10:40:49.317Z,22.98
2018-05-21T10:41:57.413Z,23.06
2018-05-21T10:43:05.503Z,23.01
2018-05-21T10:44:13.566Z,22.93
2018-05-21T10:45:21.639Z,23.01
2018-05-21T10:46:29.686Z,22.52
2018-05-21T10:47:37.782Z,22.53
2018-05-21T10:48:45.864Z,22.49
2018-05-21T10:49:53.957Z,22.61
2018-05-21T10:51:02.002Z,22.67
2018-05-21T10:52:10.051Z,22.71
2018-05-21T10:53:18.151Z,22.95
2018-05-21T10:54:26.223Z,23.02
2018-05-21T10:55:34.292Z,23.07
2018-05-21T10:56:42.362Z,23.13
2018-05-21T10:57:50.437Z,23.16
2018-05-21T10:58:58.507Z,23.13
2018-05-21T11:00:06.593Z,23.16
2018-05-21T11:01:14.656Z,23.28
2018-05-21T11:02:22.744Z,23.36
2018-05-21T11:03:30.798Z,23.36
2018-05-21T11:04:38.948Z,23.47
2018-05-21T11:05:46.949Z,23.45
2018-05-21T11:06:55.037Z,23.37
2018-05-21T11:08:03.097Z,23.48
2018-05-21T11:09:11.168Z,23.58
2018-05-21T11:10:19.234Z,23.49
2018-05-21T11:11:27.317Z,23.36
2018-05-21T11:12:35.396Z,23.44
2018-05-21T11:13:43.467Z,23.44
2018-05-21T11:14:51.535Z,23.48
2018-05-21T11:15:59.597Z,23.54
2018-05-21T11:17:07.676Z,23.54
2018-05-21T11:18:15.754Z,23.62
2018-05-21T11:19:23.836Z,23.66
2018-05-21T11:20:31.899Z,23.79
2018-05-21T11:21:39.949Z,23.81
2018-05-21T11:22:48.042Z,23.82
2018-05-21T11:23:56.136Z,23.82
2018-05-21T11:25:04.197Z,23.82
2018-05-21T11:26:12.279Z,23.74
2018-05-21T11:27:20.340Z,23.74
2018-05-21T11:28:28.427Z,23.63
2018-05-21T11:29:36.509Z,23.73
2018-05-21T11:30:44.568Z,23.73
2018-05-21T11:31:52.656Z,23.64
2018-05-21T11:33:00.730Z,23.48
2018-05-21T11:34:08.794Z,23.54
2018-05-21T11:35:16.854Z,23.54
2018-05-21T11:36:24.945Z,23.47
2018-05-21T11:37:33.007Z,23.54
2018-05-21T11:38:41.092Z,23.52
2018-05-21T11:39:49.156Z,23.71
2018-05-21T11:40:57.242Z,23.70
2018-05-21T11:42:05.319Z,23.63
2018-05-21T11:43:13.371Z,23.67
2018-05-21T11:44:21.454Z,23.67
2018-05-21T11:45:29.506Z,23.62
2018-05-21T11:46:37.607Z,23.51
2018-05-21T11:47:45.658Z,23.48
2018-05-21T11:48:53.758Z,23.59
2018-05-21T11:50:01.821Z,23.64
2018-05-21T11:51:09.867Z,23.66
2018-05-21T11:52:17.958Z,23.66
2018-05-21T11:53:26.027Z,23.58
2018-05-21T11:54:34.129Z,23.62
2018-05-21T11:55:42.193Z,23.59
2018-05-21T11:56:50.241Z,23.64
2018-05-21T11:57:58.322Z,23.64
2018-05-21T11:59:06.408Z,23.64
2018-05-21T12:00:14.467Z,23.67
2018-05-21T12:01:22.532Z,23.88
2018-05-21T12:02:30.627Z,23.85
2018-05-21T12:03:38.689Z,23.85
2018-05-21T12:04:46.755Z,23.88
2018-05-21T12:05:54.838Z,23.99
2018-05-21T12:07:02.889Z,24.01
2018-05-21T12:08:10.966Z,23.99
2018-05-21T12:09:19.046Z,23.73
2018-05-21T12:10:27.122Z,23.79
2018-05-21T12:11:35.198Z,23.81
2018-05-21T12:12:43.282Z,23.84
2018-05-21T12:13:51.346Z,23.76
2018-05-21T12:14:59.405Z,23.84
2018-05-21T12:16:07.491Z,23.79
2018-05-21T12:17:15.567Z,23.82
2018-05-21T12:18:23.635Z,23.82
2018-05-21T12:19:31.764Z,23.89
2018-05-21T12:20:39.758Z,24.07
2018-05-21T12:21:47.857Z,24.03
2018-05-21T12:22:55.949Z,24.03
2018-05-21T12:24:03.998Z,24.11
2018-05-21T12:25:12.084Z,24.19
2018-05-21T12:26:20.116Z,24.21
2018-05-21T12:27:28.227Z,24.22
2018-05-21T12:28:36.308Z,24.14
2018-05-21T12:29:44.357Z,24.11
2018-05-21T12:30:52.443Z,24.00
2018-05-21T12:32:00.514Z,24.03
2018-05-21T12:33:08.580Z,24.00
2018-05-21T12:34:16.652Z,23.99
2018-05-21T12:35:24.724Z,23.89
2018-05-21T12:36:32.789Z,23.88
2018-05-21T12:37:40.886Z,23.91
2018-05-21T12:38:48.948Z,23.88
2018-05-21T12:39:57.018Z,23.84
2018-05-21T12:41:05.077Z,23.86
2018-05-21T12:42:13.172Z,23.86
2018-05-21T12:43:21.244Z,23.94
2018-05-21T12:44:29.291Z,23.89
2018-05-21T12:45:37.385Z,23.94
2018-05-21T12:46:45.554Z,23.95
2018-05-21T12:47:53.533Z,24.01
2018-05-21T12:49:01.614Z,24.10
2018-05-21T12:50:09.647Z,24.11
2018-05-21T12:51:17.751Z,24.19
2018-05-21T12:52:25.824Z,24.22
2018-05-21T12:53:33.897Z,24.09
2018-05-21T12:54:42.036Z,24.10
2018-05-21T12:55:50.019Z,24.13
2018-05-21T12:56:58.114Z,24.01
2018-05-21T12:58:06.191Z,24.09
2018-05-21T12:59:14.254Z,24.11
2018-05-21T13:00:22.335Z,24.11
2018-05-21T13:01:30.393Z,24.11
2018-05-21T13:02:38.464Z,23.91
2018-05-21T13:03:46.550Z,23.82
2018-05-21T13:04:54.624Z,23.70
2018-05-21T13:06:02.698Z,23.54
2018-05-21T13:07:10.761Z,23.49
2018-05-21T13:08:18.833Z,23.52
2018-05-21T13:09:27.223Z,23.74
2018-05-21T13:10:34.985Z,23.85
2018-05-21T13:11:43.069Z,23.84
2018-05-21T13:12:51.131Z,23.88
2018-05-21T13:13:59.203Z,23.86
2018-05-21T13:15:07.276Z,23.99
2018-05-21T13:16:15.353Z,24.06
2018-05-21T13:17:23.416Z,23.96
2018-05-21T13:18:31.501Z,24.06
2018-05-21T13:19:39.534Z,24.00
2018-05-21T13:20:47.632Z,24.04
2018-05-21T13:21:55.730Z,24.07
2018-05-21T13:23:03.764Z,24.06
2018-05-21T13:24:11.854Z,24.04
2018-05-21T13:25:19.895Z,24.09
2018-05-21T13:26:27.998Z,24.04
2018-05-21T13:27:36.073Z,24.07
2018-05-21T13:28:44.138Z,24.09
2018-05-21T13:29:52.220Z,24.10
2018-05-21T13:31:00.268Z,24.01
2018-05-21T13:32:08.352Z,24.04
2018-05-21T13:33:16.436Z,24.06
2018-05-21T13:34:24.492Z,24.09
2018-05-21T13:35:32.586Z,24.11
2018-05-21T13:36:40.655Z,24.03
2018-05-21T13:37:48.718Z,24.10
2018-05-21T13:38:56.793Z,24.03
2018-05-21T13:40:04.868Z,24.06
2018-05-21T13:41:12.933Z,24.07
2018-05-21T13:42:21.007Z,24.07
2018-05-21T13:43:29.082Z,24.13
2018-05-21T13:44:37.156Z,24.14
2018-05-21T13:45:45.264Z,24.13
2018-05-21T13:46:53.304Z,24.25
2018-05-21T13:48:01.385Z,24.28
2018-05-21T13:49:09.433Z,24.26
2018-05-21T13:50:17.524Z,24.32
2018-05-21T13:51:25.589Z,24.31
2018-05-21T13:52:33.722Z,24.32
2018-05-21T13:53:41.746Z,24.44
2018-05-21T13:54:49.786Z,24.43
2018-05-21T13:55:57.881Z,24.47
2018-05-21T13:57:05.955Z,24.38
2018-05-21T13:58:14.029Z,24.40
2018-05-21T13:59:22.114Z,24.25
2018-05-21T14:00:30.161Z,24.29
2018-05-21T14:01:38.250Z,24.36
2018-05-21T14:02:46.332Z,24.37
2018-05-21T14:03:54.403Z,24.53
2018-05-21T14:05:02.476Z,24.59
2018-05-21T14:06:10.540Z,24.59
2018-05-21T14:07:18.613Z,24.62
2018-05-21T14:08:26.699Z,24.77
2018-05-21T14:09:34.756Z,24.74
2018-05-21T14:10:42.835Z,24.74
2018-05-21T14:11:50.928Z,24.65
2018-05-21T14:12:58.988Z,24.61
2018-05-21T14:14:07.048Z,24.75
2018-05-21T14:15:15.136Z,24.94
2018-05-21T14:16:23.215Z,24.89
2018-05-21T14:17:31.280Z,24.99
2018-05-21T14:18:39.328Z,25.11
2018-05-21T14:19:47.420Z,25.18
2018-05-21T14:20:55.500Z,25.34
2018-05-21T14:22:03.579Z,25.39
2018-05-21T14:23:11.650Z,25.43
2018-05-21T14:24:19.698Z,25.39
2018-05-21T14:25:27.824Z,25.15
2018-05-21T14:26:35.871Z,25.07
2018-05-21T14:27:43.948Z,24.93
2018-05-21T14:28:52.609Z,24.81
2018-05-21T14:30:00.672Z,24.77
2018-05-21T14:31:08.169Z,24.66
2018-05-21T14:32:16.240Z,24.71
2018-05-21T14:33:24.314Z,24.82
2018-05-21T14:34:32.385Z,24.62
2018-05-21T14:35:40.453Z,24.56
2018-05-21T14:36:48.535Z,24.41